createdAt,value
2019-04-14T00:00:27.165Z,78.35
2019-04-14T00:02:57.711Z,83.97
2019-04-14T00:05:25.992Z,73.92
2019-04-14T00:07:54.207Z,77.17
2019-04-14T00:10:22.585Z,76.55
2019-04-14T00:12:51.445Z,77.27
2019-04-14T00:15:29.464Z,79.72
2019-04-14T00:17:50.366Z,79.60
2019-04-14T00:20:18.678Z,76.95
2019-04-14T00:22:46.908Z,74.80
2019-04-14T00:25:15.197Z,78.07
2019-04-14T00:27:43.406Z,77.32
2019-04-14T00:30:11.897Z,78.12
2019-04-14T00:32:58.014Z,78.28
2019-04-14T00:35:45.634Z,78.30
2019-04-14T00:38:21.789Z,80.25
2019-04-14T00:40:58.312Z,80.15
2019-04-14T00:43:43.898Z,78.47
2019-04-14T00:46:16.937Z,81.15
2019-04-14T00:48:47.394Z,76.90
2019-04-14T00:51:15.733Z,79.65
2019-04-14T00:53:44.598Z,76.33
2019-04-14T00:56:12.936Z,78.97
2019-04-14T00:58:41.160Z,77.30
2019-04-14T01:01:09.360Z,74.20
2019-04-14T01:03:37.575Z,73.02
2019-04-14T01:06:05.779Z,75.75
2019-04-14T01:08:33.997Z,75.50
2019-04-14T01:11:03.077Z,72.67
2019-04-14T01:13:31.406Z,72.75
2019-04-14T01:16:07.207Z,76.15
2019-04-14T01:18:29.832Z,76.35
2019-04-14T01:20:58.155Z,67.80
2019-04-14T01:23:26.367Z,69.10
2019-04-14T01:25:56.316Z,71.45
2019-04-14T01:28:24.787Z,67.60
2019-04-14T01:30:53.010Z,73.80
2019-04-14T01:33:21.204Z,70.50
2019-04-14T01:35:49.420Z,67.42
2019-04-14T01:38:17.642Z,66.87
2019-04-14T01:40:46.661Z,64.10
2019-04-14T01:43:15.028Z,70.00
2019-04-14T01:45:43.314Z,66.62
2019-04-14T01:48:12.657Z,63.45
2019-04-14T01:50:45.545Z,66.40
2019-04-14T01:53:16.108Z,64.27
2019-04-14T01:58:16.418Z,69.03
2019-04-14T02:00:46.683Z,62.78
2019-04-14T02:03:15.068Z,68.30
2019-04-14T02:05:43.268Z,70.35
2019-04-14T02:08:11.489Z,66.00
2019-04-14T02:10:39.697Z,66.42
2019-04-14T02:13:09.190Z,60.25
2019-04-14T02:15:37.616Z,58.97
2019-04-14T02:18:05.837Z,60.85
2019-04-14T02:20:34.048Z,61.45
2019-04-14T02:23:02.276Z,64.82
2019-04-14T02:25:31.669Z,60.43
2019-04-14T02:28:00.178Z,54.70
2019-04-14T02:30:36.266Z,57.08
2019-04-14T02:33:33.792Z,68.25
2019-04-14T02:36:05.760Z,65.52
2019-04-14T02:38:34.211Z,64.10
2019-04-14T02:41:04.295Z,57.95
2019-04-14T02:43:29.682Z,63.08
2019-04-14T02:48:37.748Z,58.65
2019-04-14T02:50:56.092Z,58.42
2019-04-14T02:53:39.319Z,61.15
2019-04-14T02:56:01.978Z,61.63
2019-04-14T02:58:34.643Z,60.15
2019-04-14T03:01:03.980Z,63.78
2019-04-14T03:06:10.386Z,65.03
2019-04-14T03:08:26.113Z,59.42
2019-04-14T03:10:53.973Z,62.93
2019-04-14T03:15:58.891Z,59.40
2019-04-14T03:18:39.615Z,58.75
2019-04-14T03:21:21.287Z,59.93
2019-04-14T03:26:45.027Z,63.28
2019-04-14T03:29:24.772Z,61.45
2019-04-14T03:34:34.158Z,53.80
2019-04-14T03:39:24.906Z,58.80
2019-04-14T03:44:25.777Z,60.98
2019-04-14T03:46:50.740Z,60.73
2019-04-14T03:49:24.863Z,56.85
2019-04-14T03:51:50.626Z,57.85
2019-04-14T03:54:15.922Z,54.95
2019-04-14T03:56:46.697Z,57.80
2019-04-14T03:59:15.802Z,52.08
2019-04-14T04:01:44.088Z,55.60
2019-04-14T04:04:12.316Z,49.13
2019-04-14T04:06:40.527Z,49.35
2019-04-14T04:09:08.748Z,50.12
2019-04-14T04:11:37.020Z,55.35
2019-04-14T04:14:05.323Z,53.58
2019-04-14T04:16:35.536Z,54.10
2019-04-14T04:19:12.998Z,51.42
2019-04-14T04:21:55.870Z,52.88
2019-04-14T04:24:43.304Z,48.73
2019-04-14T04:27:20.052Z,48.35
2019-04-14T04:29:59.232Z,49.63
2019-04-14T04:32:29.765Z,49.77
2019-04-14T04:35:02.697Z,50.28
2019-04-14T04:37:35.435Z,50.28
2019-04-14T04:40:15.781Z,50.75
2019-04-14T04:42:44.000Z,48.10
2019-04-14T04:45:12.767Z,43.58
2019-04-14T04:47:41.096Z,45.80
2019-04-14T04:50:09.308Z,46.65
2019-04-14T04:52:38.565Z,41.15
2019-04-14T04:55:06.854Z,42.67
2019-04-14T04:57:35.205Z,52.95
2019-04-14T05:00:05.443Z,41.83
2019-04-14T05:02:33.640Z,45.00
2019-04-14T05:05:03.417Z,46.65
2019-04-14T05:07:31.796Z,41.40
2019-04-14T05:10:02.655Z,43.87
2019-04-14T05:12:32.769Z,44.33
2019-04-14T05:15:03.566Z,43.08
2019-04-14T05:17:34.269Z,43.50
2019-04-14T05:20:03.216Z,44.93
2019-04-14T05:22:31.671Z,43.38
2019-04-14T05:24:59.880Z,41.65
2019-04-14T05:27:28.087Z,47.43
2019-04-14T05:29:56.296Z,38.73
2019-04-14T05:32:24.520Z,39.73
2019-04-14T05:34:52.742Z,36.05
2019-04-14T05:37:20.942Z,43.35
2019-04-14T05:39:50.408Z,41.35
2019-04-14T05:42:22.074Z,41.45
2019-04-14T05:44:49.437Z,39.60
2019-04-14T05:47:17.751Z,34.45
2019-04-14T05:49:50.087Z,33.50
2019-04-14T05:52:16.359Z,37.17
2019-04-14T05:54:44.789Z,36.10
2019-04-14T05:57:13.394Z,34.75
2019-04-14T05:59:41.866Z,36.00
2019-04-14T06:02:10.147Z,34.63
2019-04-14T06:04:39.562Z,34.60
2019-04-14T06:07:07.952Z,31.40
2019-04-14T06:09:36.183Z,37.40
2019-04-14T06:12:04.379Z,32.83
2019-04-14T06:14:32.588Z,31.95
2019-04-14T06:17:00.788Z,36.53
2019-04-14T06:19:37.080Z,40.05
2019-04-14T06:21:58.963Z,35.70
2019-04-14T06:24:27.181Z,31.60
2019-04-14T06:26:55.376Z,29.90
2019-04-14T06:29:23.595Z,36.05
2019-04-14T06:31:53.456Z,31.40
2019-04-14T06:34:23.332Z,34.88
2019-04-14T06:36:53.192Z,32.58
2019-04-14T06:39:23.033Z,33.57
2019-04-14T06:41:51.247Z,32.30
2019-04-14T06:44:19.499Z,33.25
2019-04-14T06:46:47.730Z,31.15
2019-04-14T06:49:15.930Z,25.75
2019-04-14T06:51:44.154Z,23.87
2019-04-14T06:54:12.385Z,30.17
2019-04-14T06:56:40.600Z,29.32
2019-04-14T06:59:08.807Z,27.40
2019-04-14T07:01:39.031Z,25.97
2019-04-14T07:04:06.981Z,28.20
2019-04-14T07:06:35.191Z,33.15
2019-04-14T07:09:03.972Z,23.95
2019-04-14T07:11:32.199Z,25.02
2019-04-14T07:14:00.494Z,24.92
2019-04-14T07:16:28.717Z,24.98
2019-04-14T07:18:56.931Z,26.30
2019-04-14T07:21:25.147Z,24.23
2019-04-14T07:23:53.380Z,25.92
2019-04-14T07:26:21.588Z,24.25
2019-04-14T07:28:56.640Z,24.98
2019-04-14T07:31:27.382Z,21.68
2019-04-14T07:34:03.205Z,23.40
2019-04-14T07:36:33.047Z,23.73
2019-04-14T07:39:05.674Z,23.57
2019-04-14T07:41:44.552Z,22.93
2019-04-14T07:44:29.537Z,19.57
2019-04-14T07:46:59.400Z,20.48
2019-04-14T07:49:38.216Z,19.55
2019-04-14T07:52:08.060Z,18.80
2019-04-14T07:54:41.417Z,20.30
2019-04-14T07:57:23.508Z,22.52
2019-04-14T07:59:53.455Z,21.77
2019-04-14T08:02:29.320Z,18.90
2019-04-14T08:05:01.942Z,18.48
2019-04-14T08:07:30.161Z,25.05
2019-04-14T08:09:58.364Z,19.30
2019-04-14T08:12:26.598Z,20.32
2019-04-14T08:14:54.844Z,18.75
2019-04-14T08:17:23.101Z,17.25
2019-04-14T08:19:51.312Z,19.37
2019-04-14T08:22:19.545Z,20.45
2019-04-14T08:24:47.760Z,19.90
2019-04-14T08:27:15.982Z,21.35
2019-04-14T08:29:44.192Z,25.40
2019-04-14T08:32:12.400Z,23.70
2019-04-14T08:34:40.620Z,22.42
2019-04-14T08:37:08.843Z,20.20
2019-04-14T08:39:37.108Z,22.65
2019-04-14T08:42:16.126Z,20.68
2019-04-14T08:44:45.995Z,20.30
2019-04-14T08:47:27.914Z,21.05
2019-04-14T08:49:57.789Z,20.32
2019-04-14T08:52:27.659Z,22.73
2019-04-14T08:54:57.500Z,22.95
2019-04-14T08:57:43.596Z,20.32
2019-04-14T09:00:13.476Z,23.77
2019-04-14T09:02:43.319Z,23.12
2019-04-14T09:05:29.451Z,20.85
2019-04-14T09:08:02.392Z,21.15
2019-04-14T09:10:32.248Z,21.10
2019-04-14T09:13:00.475Z,18.15
2019-04-14T09:15:28.684Z,18.15
2019-04-14T09:17:56.931Z,20.68
2019-04-14T09:20:25.136Z,18.77
2019-04-14T09:22:53.527Z,19.75
2019-04-14T09:25:21.744Z,18.80
2019-04-14T09:27:49.981Z,20.35
2019-04-14T09:30:18.554Z,19.12
2019-04-14T09:32:46.764Z,19.05
2019-04-14T09:35:14.992Z,18.90
2019-04-14T09:37:43.232Z,17.80
2019-04-14T09:40:11.448Z,18.17
2019-04-14T09:42:39.659Z,18.30
2019-04-14T09:45:07.884Z,17.27
2019-04-14T09:47:36.092Z,17.32
2019-04-14T09:50:05.648Z,20.82
2019-04-14T09:52:33.875Z,18.17
2019-04-14T09:55:02.149Z,21.23
2019-04-14T09:57:30.351Z,15.25
2019-04-14T09:59:58.570Z,18.00
2019-04-14T10:02:26.786Z,18.95
2019-04-14T10:04:55.011Z,18.07
2019-04-14T10:07:23.283Z,16.60
2019-04-14T10:09:51.533Z,19.87
2019-04-14T10:12:19.816Z,15.72
2019-04-14T10:14:48.040Z,15.70
2019-04-14T10:17:16.265Z,20.52
2019-04-14T10:19:44.566Z,15.90
2019-04-14T10:22:12.802Z,16.42
2019-04-14T10:24:41.004Z,18.25
2019-04-14T10:27:09.219Z,19.12
2019-04-14T10:29:37.428Z,18.20
2019-04-14T10:32:05.707Z,20.55
2019-04-14T10:34:33.895Z,17.17
2019-04-14T10:37:02.118Z,20.17
2019-04-14T10:39:30.343Z,17.50
2019-04-14T10:41:58.546Z,17.48
2019-04-14T10:44:26.920Z,16.25
2019-04-14T10:46:55.128Z,17.67
2019-04-14T10:49:23.345Z,16.52
2019-04-14T10:51:51.568Z,18.55
2019-04-14T10:54:19.789Z,20.12
2019-04-14T10:56:48.000Z,16.65
2019-04-14T10:59:16.245Z,16.27
2019-04-14T11:01:44.473Z,21.42
2019-04-14T11:04:12.688Z,16.85
2019-04-14T11:06:42.600Z,17.55
2019-04-14T11:09:12.458Z,16.37
2019-04-14T11:11:40.683Z,18.42
2019-04-14T11:14:08.883Z,17.62
2019-04-14T11:16:37.091Z,16.65
2019-04-14T11:19:05.313Z,29.37
2019-04-14T11:21:42.384Z,23.80
2019-04-14T11:24:03.477Z,21.48
2019-04-14T11:26:31.684Z,20.30
2019-04-14T11:28:59.900Z,20.35
2019-04-14T11:31:46.455Z,22.77
2019-04-14T11:34:16.319Z,18.87
2019-04-14T11:37:01.219Z,20.27
2019-04-14T11:39:29.546Z,22.77
2019-04-14T11:41:57.831Z,27.58
2019-04-14T11:44:26.075Z,24.90
2019-04-14T11:46:54.282Z,21.65
2019-04-14T11:49:22.498Z,22.52
2019-04-14T11:51:55.529Z,20.00
2019-04-14T11:54:20.674Z,22.80
2019-04-14T11:56:48.917Z,24.25
2019-04-14T11:59:18.751Z,17.92
2019-04-14T12:02:00.904Z,18.92
2019-04-14T12:04:30.768Z,21.62
2019-04-14T12:07:17.164Z,18.25
2019-04-14T12:09:47.018Z,20.70
2019-04-14T12:12:15.314Z,18.92
2019-04-14T12:14:43.520Z,19.60
2019-04-14T12:17:11.744Z,21.48
2019-04-14T12:19:39.973Z,16.77
2019-04-14T12:22:08.824Z,20.45
2019-04-14T12:24:37.298Z,19.87
2019-04-14T12:27:05.514Z,25.35
2019-04-14T12:29:34.814Z,17.52
2019-04-14T12:32:03.954Z,17.07
2019-04-14T12:34:32.389Z,16.82
2019-04-14T12:37:00.665Z,23.57
2019-04-14T12:39:28.992Z,22.40
2019-04-14T12:42:17.187Z,24.32
2019-04-14T12:44:49.509Z,20.80
2019-04-14T12:47:25.332Z,20.27
2019-04-14T12:49:55.200Z,25.17
2019-04-14T12:52:25.064Z,20.80
2019-04-14T12:54:53.314Z,23.57
2019-04-14T12:57:38.574Z,19.45
2019-04-14T13:00:08.423Z,17.52
2019-04-14T13:02:40.925Z,20.00
2019-04-14T13:05:09.613Z,16.97
2019-04-14T13:07:37.836Z,21.12
2019-04-14T13:10:07.029Z,17.95
2019-04-14T13:12:35.251Z,17.50
2019-04-14T13:15:05.130Z,19.52
2019-04-14T13:17:33.349Z,18.75
2019-04-14T13:20:01.574Z,18.45
2019-04-14T13:22:34.236Z,18.30
2019-04-14T13:24:59.735Z,17.32
2019-04-14T13:27:27.975Z,18.87
2019-04-14T13:29:56.188Z,16.80
2019-04-14T13:32:35.344Z,16.82
2019-04-14T13:34:54.397Z,16.75
2019-04-14T13:37:22.620Z,18.95
2019-04-14T13:39:50.831Z,17.40
2019-04-14T13:42:19.072Z,14.58
2019-04-14T13:44:47.273Z,13.68
2019-04-14T13:47:15.504Z,18.50
2019-04-14T13:49:43.715Z,13.68
2019-04-14T13:52:11.963Z,15.85
2019-04-14T13:54:40.252Z,15.20
2019-04-14T13:57:08.447Z,12.78
2019-04-14T13:59:36.681Z,12.20
2019-04-14T14:02:04.971Z,14.90
2019-04-14T14:04:33.209Z,12.70
2019-04-14T14:07:01.447Z,12.60
2019-04-14T14:09:29.664Z,11.85
2019-04-14T14:12:05.567Z,14.60
2019-04-14T14:14:44.563Z,15.40
2019-04-14T14:17:30.696Z,12.90
2019-04-14T14:20:09.434Z,15.45
2019-04-14T14:22:59.654Z,13.30
2019-04-14T14:25:27.398Z,15.32
2019-04-14T14:27:55.588Z,16.97
2019-04-14T14:30:23.810Z,18.23
2019-04-14T14:32:52.036Z,17.75
2019-04-14T14:35:20.276Z,17.07
2019-04-14T14:37:48.517Z,17.35
2019-04-14T14:40:16.749Z,19.45
2019-04-14T14:42:44.939Z,18.10
2019-04-14T14:45:14.809Z,17.25
2019-04-14T14:47:44.673Z,16.65
2019-04-14T14:50:32.887Z,20.68
2019-04-14T14:53:11.625Z,19.02
2019-04-14T14:55:31.052Z,21.27
2019-04-14T14:57:59.266Z,21.12
2019-04-14T15:00:29.144Z,23.25
2019-04-14T15:02:57.360Z,18.65
2019-04-14T15:05:25.577Z,22.22
2019-04-14T15:07:53.798Z,24.85
2019-04-14T15:10:22.165Z,25.37
2019-04-14T15:12:50.441Z,29.37
2019-04-14T15:15:18.652Z,23.73
2019-04-14T15:17:47.043Z,23.18
2019-04-14T15:20:15.319Z,26.95
2019-04-14T15:22:43.538Z,22.67
2019-04-14T15:25:11.764Z,27.73
2019-04-14T15:27:39.976Z,23.65
2019-04-14T15:30:10.073Z,23.95
2019-04-14T15:32:38.345Z,23.75
2019-04-14T15:35:06.578Z,21.93
2019-04-14T15:37:34.788Z,22.35
2019-04-14T15:40:03.459Z,19.75
2019-04-14T15:42:31.682Z,23.52
2019-04-14T15:44:59.905Z,24.15
2019-04-14T15:47:28.747Z,21.95
2019-04-14T15:49:57.005Z,24.77
2019-04-14T15:52:25.212Z,24.27
2019-04-14T15:54:53.420Z,23.22
2019-04-14T15:57:29.332Z,22.42
2019-04-14T15:59:59.176Z,23.83
2019-04-14T16:02:32.300Z,27.42
2019-04-14T16:05:04.830Z,26.62
2019-04-14T16:07:46.901Z,25.15
2019-04-14T16:10:16.737Z,25.00
2019-04-14T16:12:49.298Z,27.58
2019-04-14T16:15:25.220Z,27.48
2019-04-14T16:17:58.096Z,29.80
2019-04-14T16:20:31.345Z,26.68
2019-04-14T16:22:59.573Z,28.15
2019-04-14T16:25:29.442Z,29.05
2019-04-14T16:27:59.313Z,27.17
2019-04-14T16:30:32.120Z,28.67
2019-04-14T16:33:20.024Z,29.05
2019-04-14T16:35:48.816Z,29.02
2019-04-14T16:38:17.056Z,33.30
2019-04-14T16:40:45.274Z,29.55
2019-04-14T16:43:13.499Z,29.77
2019-04-14T16:45:41.692Z,28.83
2019-04-14T16:48:09.917Z,27.75
2019-04-14T16:50:38.144Z,33.23
2019-04-14T16:53:19.701Z,31.05
2019-04-14T16:55:52.728Z,27.45
2019-04-14T16:58:22.603Z,31.48
2019-04-14T17:01:01.631Z,31.27
2019-04-14T17:03:29.845Z,29.70
2019-04-14T17:05:58.307Z,30.20
2019-04-14T17:08:26.513Z,29.00
2019-04-14T17:10:54.988Z,25.92
2019-04-14T17:13:24.915Z,27.42
2019-04-14T17:15:54.771Z,29.65
2019-04-14T17:18:27.339Z,26.43
2019-04-14T17:21:00.111Z,27.90
2019-04-14T17:23:41.972Z,24.47
2019-04-14T17:26:11.828Z,24.57
2019-04-14T17:28:56.878Z,27.45
2019-04-14T17:31:35.208Z,28.75
2019-04-14T17:34:07.529Z,23.40
2019-04-14T17:36:39.813Z,24.90
2019-04-14T17:39:09.708Z,22.13
2019-04-14T17:41:48.723Z,24.12
2019-04-14T17:44:24.429Z,24.23
2019-04-14T17:47:03.139Z,22.62
2019-04-14T17:49:38.839Z,24.00
2019-04-14T17:52:25.238Z,25.20
2019-04-14T17:54:57.692Z,23.05
2019-04-14T17:57:43.522Z,19.32
2019-04-14T18:00:16.350Z,19.02
2019-04-14T18:02:49.086Z,21.62
2019-04-14T18:05:18.953Z,18.92
2019-04-14T18:07:57.896Z,21.27
2019-04-14T18:10:27.752Z,18.00
2019-04-14T18:13:09.621Z,18.77
2019-04-14T18:15:42.182Z,19.42
2019-04-14T18:18:14.990Z,16.37
2019-04-14T18:20:44.884Z,18.82
2019-04-14T18:23:13.167Z,23.12
2019-04-14T18:25:41.375Z,17.62
2019-04-14T18:28:31.242Z,15.70
2019-04-14T18:31:01.076Z,17.13
2019-04-14T18:34:08.486Z,15.00
2019-04-14T18:36:54.759Z,15.25
2019-04-14T18:39:33.168Z,14.83
2019-04-14T18:42:11.829Z,14.85
2019-04-14T18:44:42.052Z,14.50
2019-04-14T18:47:26.792Z,14.85
2019-04-14T18:49:56.713Z,15.35
2019-04-14T18:52:26.609Z,13.10
2019-04-14T18:54:56.576Z,11.75
2019-04-14T18:57:29.157Z,11.73
2019-04-14T18:59:59.092Z,11.30
2019-04-14T19:02:27.375Z,12.35
2019-04-14T19:04:55.563Z,11.70
2019-04-14T19:07:23.829Z,11.28
2019-04-14T19:09:52.032Z,12.30
2019-04-14T19:12:21.915Z,11.78
2019-04-14T19:14:51.740Z,14.28
2019-04-14T19:17:27.670Z,11.40
2019-04-14T19:20:01.903Z,11.60
2019-04-14T19:22:27.688Z,11.53
2019-04-14T19:25:07.482Z,11.48
2019-04-14T19:27:25.962Z,13.03
2019-04-14T19:29:54.178Z,10.63
2019-04-14T19:32:22.388Z,13.10
2019-04-14T19:34:50.735Z,11.53
2019-04-14T19:37:19.013Z,11.20
2019-04-14T19:39:47.234Z,10.25
2019-04-14T19:42:15.457Z,10.18
2019-04-14T19:44:43.669Z,11.90
2019-04-14T19:47:11.888Z,9.33
2019-04-14T19:49:40.163Z,10.58
2019-04-14T19:52:08.407Z,8.63
2019-04-14T19:54:37.482Z,9.23
2019-04-14T19:57:05.706Z,9.40
2019-04-14T19:59:33.907Z,9.35
2019-04-14T20:02:02.107Z,8.65
2019-04-14T20:04:30.320Z,9.88
2019-04-14T20:06:58.543Z,9.70
2019-04-14T20:09:26.772Z,9.43
2019-04-14T20:11:54.973Z,9.70
2019-04-14T20:14:23.264Z,9.23
2019-04-14T20:16:58.792Z,9.93
2019-04-14T20:19:44.948Z,9.10
2019-04-14T20:22:29.992Z,9.28
2019-04-14T20:25:02.778Z,9.05
2019-04-14T20:27:32.683Z,10.60
2019-04-14T20:30:09.016Z,9.53
2019-04-14T20:32:40.877Z,9.50
2019-04-14T20:35:09.468Z,9.63
2019-04-14T20:37:37.902Z,10.98
2019-04-14T20:40:09.542Z,10.95
2019-04-14T20:42:39.411Z,14.33
2019-04-14T20:45:08.450Z,16.27
2019-04-14T20:47:37.352Z,13.35
2019-04-14T20:50:07.305Z,13.90
2019-04-14T20:52:35.866Z,18.25
2019-04-14T20:55:07.588Z,16.20
2019-04-14T20:57:36.479Z,16.15
2019-04-14T21:00:05.993Z,16.67
2019-04-14T21:02:36.214Z,15.85
2019-04-14T21:05:26.236Z,18.92
2019-04-14T21:08:12.344Z,18.75
2019-04-14T21:10:42.218Z,18.75
2019-04-14T21:13:18.784Z,21.23
2019-04-14T21:15:51.268Z,22.13
2019-04-14T21:18:21.151Z,21.85
2019-04-14T21:20:59.765Z,22.05
2019-04-14T21:23:38.732Z,23.42
2019-04-14T21:26:11.406Z,21.07
2019-04-14T21:28:46.800Z,23.27
2019-04-14T21:31:22.429Z,22.93
2019-04-14T21:33:55.183Z,22.05
2019-04-14T21:36:27.910Z,21.87
2019-04-14T21:38:57.771Z,20.27
2019-04-14T21:41:27.725Z,24.00
2019-04-14T21:43:55.933Z,22.48
2019-04-14T21:46:24.152Z,21.35
2019-04-14T21:48:52.416Z,20.27
2019-04-14T21:51:24.984Z,26.10
2019-04-14T21:53:53.236Z,24.30
2019-04-14T21:56:22.933Z,23.10
2019-04-14T21:58:52.788Z,24.23
2019-04-14T22:01:43.784Z,27.40
2019-04-14T22:04:30.220Z,26.23
2019-04-14T22:07:00.097Z,25.60
2019-04-14T22:09:32.536Z,21.85
2019-04-14T22:12:02.403Z,28.45
2019-04-14T22:14:30.613Z,24.30
2019-04-14T22:16:58.835Z,24.65
2019-04-14T22:19:27.111Z,26.15
2019-04-14T22:21:55.321Z,29.72
2019-04-14T22:24:23.543Z,25.50
2019-04-14T22:26:51.756Z,22.70
2019-04-14T22:29:19.993Z,21.93
2019-04-14T22:31:48.215Z,24.00
2019-04-14T22:34:16.437Z,24.87
2019-04-14T22:36:44.662Z,29.48
2019-04-14T22:39:16.999Z,27.75
2019-04-14T22:41:45.238Z,27.98
2019-04-14T22:44:13.532Z,28.70
2019-04-14T22:46:41.738Z,26.48
2019-04-14T22:49:09.988Z,24.95
2019-04-14T22:51:38.220Z,28.50
2019-04-14T22:54:06.411Z,28.52
2019-04-14T22:56:39.440Z,23.80
2019-04-14T22:59:04.712Z,25.08
2019-04-14T23:01:34.545Z,29.75
2019-04-14T23:04:10.631Z,29.52
2019-04-14T23:06:58.773Z,24.87
2019-04-14T23:09:28.662Z,31.25
2019-04-14T23:12:16.705Z,28.70
2019-04-14T23:14:52.503Z,29.57
2019-04-14T23:17:37.449Z,23.30
2019-04-14T23:20:08.760Z,22.32
2019-04-14T23:22:41.504Z,28.62
2019-04-14T23:25:09.729Z,29.02
2019-04-14T23:27:37.973Z,30.27
2019-04-14T23:30:06.287Z,26.90
2019-04-14T23:32:34.550Z,31.77
2019-04-14T23:35:02.908Z,28.42
2019-04-14T23:37:31.129Z,27.77
2019-04-14T23:39:59.360Z,33.65
2019-04-14T23:42:27.594Z,34.48
2019-04-14T23:44:55.808Z,31.85
2019-04-14T23:47:24.020Z,31.48
2019-04-14T23:49:52.278Z,32.42
2019-04-14T23:52:20.502Z,37.58
2019-04-14T23:54:48.736Z,30.62
2019-04-14T23:57:16.971Z,37.78
2019-04-14T23:59:45.201Z,39.55
